Port Arthur/Tasman Peninsula, Australia
Current Conditions -  °F | °C
As of 8:00 AM on Thursday 27 Nov 2014 (Local Time) from YMHB Reporting Station
Broken Clouds Broken Clouds  
Wind Chill: 55°   Ceiling: 5000
Heat Index: 55°   Visibility: 6mi
Dew Point: 32°   Wind: 8mph
Humidity: 41%   Direction: 270°W
Pressure: 30.21"   Gusts: NA
Location:  43.15°S, 147.85°E
Report Text: YMHB 262100Z 27007KT 230V310 9999 BKN050 13/00 Q1023
Loading
Personal Weather Stations






























Interactive Weather Map New forecast layout! Learn more

10-Day Weather Forecast

Advertisements
Track Severe Weather on mobile